Time;durP1;ratioP1;P1;durP2;ratioP2;P2;SDS_P1;SDS_P2;PMS_P1;PMS_P2;Temp;Humidity;BMP_temperature;BMP_pressure;BME280_temperature;BME280_humidity;BME280_pressure;Samples;Min_cycle;Max_cycle;Signal;HPM_P1;HPM_P2
2021/04/20 00:00:21;;;;;;;65.65;47.40;;;8.50;99.90;;;;;;5053314;28;20048;-62
2021/04/20 00:02:47;;;;;;;61.72;45.80;;;8.50;99.90;;;;;;5052901;28;20055;-62
2021/04/20 00:05:16;;;;;;;69.93;48.67;;;8.50;99.90;;;;;;5051406;28;20021;-62
2021/04/20 00:07:42;;;;;;;69.75;50.58;;;8.60;99.90;;;;;;5052747;28;20079;-62
2021/04/20 00:10:10;;;;;;;65.80;47.63;;;8.60;99.90;;;;;;5052882;28;20017;-62
2021/04/20 00:12:36;;;;;;;56.97;42.90;;;8.60;99.90;;;;;;5052564;28;20021;-62
2021/04/20 00:15:05;;;;;;;56.05;42.75;;;8.50;99.90;;;;;;5050501;28;20393;-62
2021/04/20 00:17:31;;;;;;;53.55;42.58;;;8.50;99.90;;;;;;5052604;28;20120;-62
2021/04/20 00:19:56;;;;;;;60.78;43.58;;;8.60;99.90;;;;;;5052554;28;20107;-62
2021/04/20 00:22:22;;;;;;;59.05;44.05;;;8.50;99.90;;;;;;5051021;28;20048;-62
2021/04/20 00:24:47;;;;;;;65.60;47.50;;;8.50;99.90;;;;;;5052171;28;20054;-62
2021/04/20 00:27:13;;;;;;;68.68;48.00;;;8.50;99.90;;;;;;5052208;28;20025;-62
2021/04/20 00:29:38;;;;;;;67.32;45.65;;;8.40;99.90;;;;;;5051382;28;20113;-61
2021/04/20 00:32:05;;;;;;;63.05;45.20;;;8.30;99.90;;;;;;5051046;28;20025;-61
2021/04/20 00:34:30;;;;;;;65.32;45.47;;;8.20;99.90;;;;;;5052204;28;20567;-61
2021/04/20 00:36:56;;;;;;;77.43;46.92;;;8.20;99.90;;;;;;5052164;28;20029;-61
2021/04/20 00:39:21;;;;;;;61.58;45.10;;;8.20;99.90;;;;;;5051664;28;20025;-62
2021/04/20 00:42:00;;;;;;;64.00;45.78;;;8.10;99.90;;;;;;5052299;28;20061;-62
2021/04/20 00:44:25;;;;;;;63.03;46.47;;;8.10;99.90;;;;;;5052425;28;20150;-61
2021/04/20 00:46:51;;;;;;;72.10;51.78;;;8.00;99.90;;;;;;5053401;28;20070;-61
2021/04/20 00:49:16;;;;;;;64.10;47.58;;;8.10;99.90;;;;;;5053311;28;20033;-61
2021/04/20 00:51:42;;;;;;;63.95;47.65;;;8.00;99.90;;;;;;5051762;28;20461;-62
2021/04/20 00:54:07;;;;;;;63.42;47.20;;;7.80;99.90;;;;;;5053198;28;20025;-61
2021/04/20 00:56:33;;;;;;;58.10;42.15;;;7.70;99.90;;;;;;5053352;28;20103;-61
2021/04/20 00:58:59;;;;;;;59.25;43.53;;;7.50;99.90;;;;;;5053772;28;20504;-61
2021/04/20 01:01:24;;;;;;;59.45;44.03;;;7.30;99.90;;;;;;5051489;28;20020;-61
2021/04/20 01:03:50;;;;;;;55.90;42.90;;;7.30;99.90;;;;;;5052780;28;20025;-61
2021/04/20 01:06:16;;;;;;;58.53;44.83;;;7.40;99.90;;;;;;5051394;28;20017;-61
2021/04/20 01:08:42;;;;;;;59.58;45.92;;;7.50;99.90;;;;;;5052879;28;20337;-61
2021/04/20 01:11:08;;;;;;;60.15;47.28;;;7.50;99.90;;;;;;5051971;28;20021;-61
2021/04/20 01:13:34;;;;;;;67.30;50.15;;;7.60;99.90;;;;;;5051954;28;20017;-61
2021/04/20 01:16:01;;;;;;;59.35;46.08;;;7.60;99.90;;;;;;5052407;28;20074;-61
2021/04/20 01:18:30;;;;;;;58.67;45.50;;;7.50;99.90;;;;;;5052063;28;20033;-61
2021/04/20 01:21:01;;;;;;;70.40;51.45;;;7.50;99.90;;;;;;5051826;28;20025;-61
2021/04/20 01:23:37;;;;;;;73.80;53.25;;;7.50;99.90;;;;;;5050464;28;20032;-61
2021/04/20 01:26:04;;;;;;;71.10;51.45;;;7.60;99.90;;;;;;5051180;28;20025;-61
2021/04/20 01:28:30;;;;;;;65.80;46.85;;;7.70;99.90;;;;;;5051581;28;20405;-61
2021/04/20 01:30:57;;;;;;;63.28;47.17;;;7.70;99.90;;;;;;5051511;28;20096;-61
2021/04/20 01:33:23;;;;;;;70.35;49.10;;;7.70;99.90;;;;;;5051596;28;20378;-61
2021/04/20 01:35:50;;;;;;;66.93;48.08;;;7.70;99.90;;;;;;5051492;28;20155;-62
2021/04/20 01:38:17;;;;;;;72.13;51.58;;;7.70;99.90;;;;;;5052214;28;20025;-61
2021/04/20 01:40:43;;;;;;;75.22;52.45;;;7.80;99.90;;;;;;5051802;28;20028;-61
2021/04/20 01:43:12;;;;;;;74.13;51.97;;;7.80;99.90;;;;;;5050503;28;20120;-61
2021/04/20 01:45:40;;;;;;;77.13;52.13;;;7.80;99.90;;;;;;5052155;28;20497;-61
2021/04/20 01:48:06;;;;;;;80.65;54.67;;;7.80;99.90;;;;;;5050210;28;20128;-61
2021/04/20 01:50:32;;;;;;;68.97;51.05;;;7.80;99.90;;;;;;5051099;28;20058;-61
2021/04/20 01:52:57;;;;;;;73.53;52.00;;;7.80;99.90;;;;;;5049844;28;20025;-61
2021/04/20 01:55:23;;;;;;;70.05;50.25;;;7.80;99.90;;;;;;5051344;28;20500;-61
2021/04/20 01:57:51;;;;;;;66.15;49.30;;;7.60;99.90;;;;;;5051112;28;20041;-61
2021/04/20 02:00:19;;;;;;;96.25;62.53;;;7.80;99.90;;;;;;5051244;28;20455;-61
2021/04/20 02:02:46;;;;;;;64.25;46.22;;;7.90;99.90;;;;;;5051100;28;20025;-61
2021/04/20 02:05:12;;;;;;;73.60;51.65;;;7.90;99.90;;;;;;5050014;28;20056;-61
2021/04/20 02:07:39;;;;;;;71.57;51.30;;;7.70;99.90;;;;;;5051127;28;20021;-61
2021/04/20 02:10:07;;;;;;;68.95;46.97;;;7.60;99.90;;;;;;5051150;28;20378;-62
2021/04/20 02:12:35;;;;;;;65.75;45.58;;;7.50;99.90;;;;;;5051117;28;20025;-63
2021/04/20 02:15:01;;;;;;;63.53;46.40;;;7.40;99.90;;;;;;5049806;28;20057;-61
2021/04/20 02:17:27;;;;;;;69.15;49.17;;;7.40;99.90;;;;;;5050891;28;20040;-61
2021/04/20 02:19:53;;;;;;;75.00;53.25;;;7.40;99.90;;;;;;5051708;28;20048;-61
2021/04/20 02:22:19;;;;;;;80.85;56.83;;;7.50;99.90;;;;;;5051332;28;20087;-61
2021/04/20 02:24:45;;;;;;;81.20;55.28;;;7.50;99.90;;;;;;5051259;28;20029;-61
2021/04/20 02:27:12;;;;;;;74.43;51.03;;;7.40;99.90;;;;;;5051175;28;20036;-61
2021/04/20 02:29:38;;;;;;;70.60;50.95;;;7.20;99.90;;;;;;5051600;28;20048;-61
2021/04/20 02:32:05;;;;;;;70.15;47.83;;;7.10;99.90;;;;;;5051175;28;20104;-63
2021/04/20 02:34:31;;;;;;;73.38;51.25;;;6.90;99.90;;;;;;5051235;28;20029;-61
2021/04/20 02:36:57;;;;;;;78.82;53.47;;;6.90;99.90;;;;;;5051535;28;20033;-61
2021/04/20 02:39:24;;;;;;;74.75;52.20;;;6.90;99.90;;;;;;5053679;28;20498;-61
2021/04/20 02:41:50;;;;;;;73.97;49.65;;;6.90;99.90;;;;;;5054662;28;20044;-61
2021/04/20 02:44:16;;;;;;;76.70;53.40;;;6.80;99.90;;;;;;5055919;28;20481;-61
2021/04/20 02:46:44;;;;;;;73.80;51.05;;;6.70;99.90;;;;;;5054781;28;20079;-61
2021/04/20 02:49:11;;;;;;;69.30;49.42;;;6.70;99.90;;;;;;5056032;28;20429;-61
2021/04/20 02:51:39;;;;;;;77.93;53.40;;;6.70;99.90;;;;;;5055583;28;20028;-60
2021/04/20 02:54:06;;;;;;;75.20;51.00;;;6.70;99.90;;;;;;5055934;28;20031;-60
2021/04/20 02:56:33;;;;;;;73.65;50.65;;;6.70;99.90;;;;;;5054446;28;20071;-61
2021/04/20 02:59:05;;;;;;;70.75;50.40;;;6.70;99.90;;;;;;5055634;28;20079;-61
2021/04/20 03:01:36;;;;;;;68.55;48.95;;;6.80;99.90;;;;;;5053732;28;20052;-61
2021/04/20 03:04:02;;;;;;;69.72;49.10;;;6.80;99.90;;;;;;5054619;28;20029;-61
2021/04/20 03:06:28;;;;;;;77.75;53.80;;;6.80;99.90;;;;;;5055309;28;20032;-60
2021/04/20 03:08:54;;;;;;;85.63;56.38;;;7.00;99.90;;;;;;5054936;28;20100;-61
2021/04/20 03:11:52;;;;;;;85.03;57.30;;;6.90;99.90;;;;;;5054939;28;20037;-61
2021/04/20 03:14:19;;;;;;;87.07;58.30;;;6.80;99.90;;;;;;5054476;28;20111;-61
2021/04/20 03:16:45;;;;;;;86.25;56.80;;;6.80;99.90;;;;;;5054505;28;20025;-61
2021/04/20 03:19:10;;;;;;;86.90;57.90;;;6.90;99.90;;;;;;5054597;28;20036;-60
2021/04/20 03:21:37;;;;;;;96.63;60.60;;;7.10;99.90;;;;;;5054573;28;20083;-61
2021/04/20 03:24:04;;;;;;;89.68;59.80;;;7.20;99.90;;;;;;5054135;28;20028;-61
2021/04/20 03:26:40;;;;;;;95.75;61.58;;;7.20;99.90;;;;;;5054679;28;20104;-61
2021/04/20 03:29:08;;;;;;;98.05;63.03;;;7.20;99.90;;;;;;5053883;28;20017;-62
2021/04/20 03:31:40;;;;;;;98.93;62.00;;;7.20;99.90;;;;;;5052835;28;20037;-61
2021/04/20 03:34:18;;;;;;;108.25;65.88;;;7.20;99.90;;;;;;5055221;28;20029;-60
2021/04/20 03:37:05;;;;;;;110.18;67.95;;;7.20;99.90;;;;;;5053239;28;20037;-61
2021/04/20 03:39:38;;;;;;;95.18;60.85;;;7.20;99.90;;;;;;5054788;28;20024;-61
2021/04/20 03:42:09;;;;;;;90.45;57.08;;;7.10;99.90;;;;;;5054004;28;20092;-61
2021/04/20 03:44:41;;;;;;;86.68;56.55;;;7.00;99.90;;;;;;5054020;28;20033;-61
2021/04/20 03:47:11;;;;;;;85.90;55.50;;;6.90;99.90;;;;;;5052392;28;20037;-61
2021/04/20 03:49:40;;;;;;;90.15;56.90;;;6.90;99.90;;;;;;5052941;28;20040;-61
2021/04/20 03:52:13;;;;;;;100.22;61.55;;;7.00;99.90;;;;;;5052834;28;20064;-61
2021/04/20 03:54:43;;;;;;;96.43;61.72;;;6.90;99.90;;;;;;5053899;28;20112;-61
2021/04/20 03:57:11;;;;;;;91.88;60.45;;;7.00;99.90;;;;;;5053942;28;20497;-61
2021/04/20 03:59:38;;;;;;;96.18;60.53;;;6.80;99.90;;;;;;5053612;28;20174;-61
2021/04/20 04:02:05;;;;;;;98.10;60.30;;;6.80;99.90;;;;;;5054017;28;20025;-61
2021/04/20 04:04:31;;;;;;;104.53;62.72;;;6.80;99.90;;;;;;5052613;28;20029;-61
2021/04/20 04:06:59;;;;;;;113.22;66.90;;;6.70;99.90;;;;;;5054271;28;20021;-61
2021/04/20 04:09:27;;;;;;;108.70;68.68;;;6.60;99.90;;;;;;5052692;28;20039;-61
2021/04/20 04:12:00;;;;;;;107.68;65.72;;;6.60;99.90;;;;;;5053967;28;20424;-61
2021/04/20 04:14:28;;;;;;;112.57;67.82;;;6.60;99.90;;;;;;5053462;28;20025;-61
2021/04/20 04:17:00;;;;;;;106.45;66.15;;;6.60;99.90;;;;;;5052478;28;20031;-61
2021/04/20 04:19:28;;;;;;;111.75;67.55;;;6.60;99.90;;;;;;5052830;28;20056;-61
2021/04/20 04:22:02;;;;;;;116.75;69.13;;;6.60;99.90;;;;;;5053514;28;20064;-61
2021/04/20 04:24:37;;;;;;;119.97;70.10;;;6.60;99.90;;;;;;5053502;28;20529;-61
2021/04/20 04:27:06;;;;;;;116.20;71.30;;;6.60;99.90;;;;;;5053474;28;20461;-61
2021/04/20 04:29:34;;;;;;;106.68;65.35;;;6.70;99.90;;;;;;5052139;28;20121;-61
2021/04/20 04:32:00;;;;;;;113.10;69.00;;;6.70;99.90;;;;;;5052689;28;20028;-61
2021/04/20 04:34:27;;;;;;;107.43;64.22;;;6.90;99.90;;;;;;5053341;28;20029;-61
2021/04/20 04:36:53;;;;;;;114.20;67.55;;;6.80;99.90;;;;;;5053312;28;20021;-61
2021/04/20 04:39:19;;;;;;;118.20;69.03;;;6.80;99.90;;;;;;5053500;28;20036;-61
2021/04/20 04:41:47;;;;;;;124.93;72.05;;;6.80;99.90;;;;;;5053120;28;20381;-61
2021/04/20 04:44:14;;;;;;;100.93;59.80;;;6.80;99.90;;;;;;5052969;28;20018;-61
2021/04/20 04:46:44;;;;;;;107.03;60.70;;;6.80;99.90;;;;;;5053162;28;20120;-61
2021/04/20 04:49:11;;;;;;;110.88;66.75;;;6.80;99.90;;;;;;5053476;28;20025;-62
2021/04/20 04:51:38;;;;;;;110.38;63.67;;;6.80;99.90;;;;;;5053183;28;20033;-61
2021/04/20 04:54:13;;;;;;;113.97;67.57;;;6.90;99.90;;;;;;5052373;28;20030;-61
2021/04/20 04:56:43;;;;;;;113.10;67.43;;;7.00;99.90;;;;;;5052709;28;20049;-62
2021/04/20 04:59:11;;;;;;;120.18;69.75;;;7.00;99.90;;;;;;5051872;28;20064;-61
2021/04/20 05:01:37;;;;;;;116.43;67.55;;;7.10;99.90;;;;;;5051531;28;20025;-61
2021/04/20 05:04:13;;;;;;;116.93;67.57;;;7.10;99.90;;;;;;5052550;28;20394;-62
2021/04/20 05:06:46;;;;;;;116.38;67.90;;;7.00;99.90;;;;;;5052746;28;20425;-61
2021/04/20 05:09:14;;;;;;;121.45;69.63;;;7.10;99.90;;;;;;5053238;28;20452;-61
2021/04/20 05:11:41;;;;;;;123.38;72.53;;;7.20;99.90;;;;;;5052321;28;20021;-61
2021/04/20 05:14:08;;;;;;;116.90;66.40;;;7.10;99.90;;;;;;5052005;28;20036;-61
2021/04/20 05:16:34;;;;;;;114.57;65.45;;;7.10;99.90;;;;;;5052619;28;20064;-61
2021/04/20 05:19:02;;;;;;;107.15;61.67;;;7.10;99.90;;;;;;5052677;28;20044;-61
2021/04/20 05:21:28;;;;;;;110.80;63.45;;;7.10;99.90;;;;;;5052275;28;20130;-61
2021/04/20 05:23:54;;;;;;;101.85;61.63;;;7.10;99.90;;;;;;5052185;28;20060;-61
2021/04/20 05:26:19;;;;;;;95.13;59.03;;;7.10;99.90;;;;;;5052016;28;20458;-61
2021/04/20 05:28:45;;;;;;;101.68;59.30;;;7.20;99.90;;;;;;5051011;28;20116;-61
2021/04/20 05:31:11;;;;;;;110.38;64.75;;;7.10;99.90;;;;;;5051860;28;20017;-61
2021/04/20 05:33:37;;;;;;;102.53;62.00;;;7.20;99.90;;;;;;5052740;28;20029;-61
2021/04/20 05:36:10;;;;;;;108.68;65.95;;;7.40;99.90;;;;;;5053104;28;20029;-61
2021/04/20 05:38:36;;;;;;;109.80;65.10;;;7.50;99.90;;;;;;5044375;28;20036;-61
2021/04/20 05:41:04;;;;;;;123.70;68.47;;;7.30;99.90;;;;;;5052299;28;20064;-61
2021/04/20 05:43:29;;;;;;;209.73;125.95;;;7.30;99.90;;;;;;5052260;28;20017;-61
2021/04/20 05:45:55;;;;;;;476.00;284.38;;;7.20;99.90;;;;;;5052210;28;20021;-61
2021/04/20 05:48:22;;;;;;;352.48;223.82;;;7.30;99.90;;;;;;5052319;28;20051;-61
2021/04/20 05:50:51;;;;;;;333.85;210.90;;;7.30;99.90;;;;;;5044795;28;20044;-61
2021/04/20 05:53:17;;;;;;;334.77;220.40;;;7.30;99.90;;;;;;5041932;28;20370;-61
2021/04/20 05:55:43;;;;;;;332.50;213.27;;;7.20;99.90;;;;;;5042842;28;20029;-61
2021/04/20 05:58:10;;;;;;;313.13;200.57;;;7.10;99.90;;;;;;5049937;28;20045;-61
2021/04/20 06:00:36;;;;;;;339.40;221.45;;;7.20;99.90;;;;;;5046907;28;20386;-62
2021/04/20 06:03:02;;;;;;;323.38;216.82;;;7.20;99.90;;;;;;5047097;28;20033;-62
2021/04/20 06:05:29;;;;;;;238.23;148.50;;;7.30;99.90;;;;;;5041256;28;21052;-62
2021/04/20 06:07:57;;;;;;;188.75;126.97;;;7.30;99.90;;;;;;5035774;28;20115;-61
2021/04/20 06:10:23;;;;;;;190.13;126.70;;;7.40;99.90;;;;;;5035599;28;20039;-61
2021/04/20 06:12:49;;;;;;;206.45;139.52;;;7.70;99.90;;;;;;5037823;28;20465;-62
2021/04/20 06:15:18;;;;;;;234.38;159.45;;;7.90;99.90;;;;;;5035387;28;20343;-61
2021/04/20 06:17:45;;;;;;;228.20;155.27;;;8.00;99.90;;;;;;5033310;28;20033;-62
2021/04/20 06:20:12;;;;;;;197.65;130.50;;;8.30;99.90;;;;;;5052119;28;20021;-62
2021/04/20 06:22:41;;;;;;;168.95;113.15;;;8.60;99.90;;;;;;5035491;28;20085;-61
2021/04/20 06:25:12;;;;;;;176.80;123.20;;;8.80;99.90;;;;;;5036069;28;20030;-61
2021/04/20 06:27:41;;;;;;;190.65;124.50;;;8.90;99.90;;;;;;5031892;28;20026;-65
2021/04/20 06:30:09;;;;;;;214.35;137.63;;;9.10;99.90;;;;;;5037326;28;20044;-62
2021/04/20 06:32:37;;;;;;;268.58;192.82;;;9.20;99.90;;;;;;5052169;28;20037;-62
2021/04/20 06:35:03;;;;;;;238.23;164.27;;;9.40;99.90;;;;;;5029295;28;20029;-62
2021/04/20 06:37:29;;;;;;;220.18;143.75;;;9.40;99.90;;;;;;5024367;28;20040;-62
2021/04/20 06:39:56;;;;;;;227.27;145.82;;;9.60;99.90;;;;;;5036207;28;20037;-62
2021/04/20 06:42:24;;;;;;;242.95;156.82;;;9.70;99.90;;;;;;5023454;28;20116;-62
2021/04/20 06:45:02;;;;;;;252.80;168.25;;;9.80;99.90;;;;;;5039590;28;20485;-62
2021/04/20 06:47:43;;;;;;;201.85;130.40;;;9.70;99.90;;;;;;5011632;28;20114;-63
2021/04/20 06:50:11;;;;;;;224.73;146.77;;;9.70;99.90;;;;;;5030777;28;20116;-62
2021/04/20 06:53:14;;;;;;;216.82;149.68;;;9.70;99.90;;;;;;5032159;28;20398;-63
2021/04/20 06:55:55;;;;;;;253.70;177.57;;;9.90;99.90;;;;;;5032516;28;20056;-64
2021/04/20 06:58:27;;;;;;;232.52;165.57;;;10.40;99.90;;;;;;5023292;28;20053;-64
2021/04/20 07:00:57;;;;;;;229.40;164.30;;;10.70;99.90;;;;;;5031798;28;20038;-63
2021/04/20 07:03:37;;;;;;;197.75;136.93;;;10.80;99.90;;;;;;5030422;28;20703;-63
2021/04/20 07:06:20;;;;;;;157.48;110.85;;;11.00;99.90;;;;;;5033630;28;20021;-62
2021/04/20 07:08:56;;;;;;;134.73;96.63;;;11.20;99.90;;;;;;5031947;28;20442;-63
2021/04/20 07:11:25;;;;;;;114.43;77.35;;;11.00;99.90;;;;;;5027422;28;20112;-63
2021/04/20 07:13:53;;;;;;;107.93;71.53;;;11.00;99.90;;;;;;5027136;28;20555;-62
2021/04/20 07:16:24;;;;;;;95.72;66.50;;;11.30;99.90;;;;;;5028835;28;20453;-63
2021/04/20 07:19:14;;;;;;;95.45;63.92;;;11.80;99.90;;;;;;5025248;28;20068;-62
2021/04/20 07:22:07;;;;;;;84.75;59.20;;;12.80;99.90;;;;;;5030710;28;20025;-64
2021/04/20 07:24:57;;;;;;;85.00;59.05;;;14.40;99.90;;;;;;5028371;28;20025;-64
2021/04/20 07:27:54;;;;;;;80.93;57.10;;;15.90;99.90;;;;;;5034518;28;20112;-64
2021/04/20 07:31:13;;;;;;;81.35;56.60;;;16.70;99.90;;;;;;5038990;28;21547;-63
2021/04/20 07:34:00;;;;;;;82.90;57.67;;;17.00;99.90;;;;;;5001819;28;20049;-64
2021/04/20 07:36:44;;;;;;;81.80;58.67;;;17.20;99.90;;;;;;5017533;28;20116;-64
2021/04/20 07:39:17;;;;;;;79.13;57.20;;;17.70;98.40;;;;;;5035699;28;20080;-63
2021/04/20 07:41:49;;;;;;;78.50;55.80;;;17.80;97.30;;;;;;5030503;28;20967;-66
2021/04/20 07:44:20;;;;;;;77.20;55.07;;;18.00;97.20;;;;;;5038358;28;20461;-63
2021/04/20 07:46:57;;;;;;;74.32;54.45;;;18.20;95.60;;;;;;5034679;28;20094;-63
2021/04/20 07:49:51;;;;;;;70.75;53.15;;;18.10;95.80;;;;;;5051627;28;20029;-63
2021/04/20 07:52:55;;;;;;;71.00;52.63;;;18.20;95.90;;;;;;5036511;28;20382;-64
2021/04/20 07:55:28;;;;;;;69.22;51.78;;;18.60;95.10;;;;;;5030678;28;20021;-64
2021/04/20 07:58:07;;;;;;;66.50;50.35;;;19.40;93.60;;;;;;5035826;28;20041;-63
2021/04/20 08:00:37;;;;;;;68.82;52.72;;;19.50;91.70;;;;;;5034405;28;20615;-64
2021/04/20 08:03:33;;;;;;;67.22;50.88;;;19.90;88.90;;;;;;5032521;28;20033;-65
2021/04/20 08:06:12;;;;;;;64.50;49.50;;;19.50;87.10;;;;;;5035159;28;20126;-64
2021/04/20 08:09:01;;;;;;;86.20;52.80;;;19.40;90.80;;;;;;5039765;28;20146;-65
2021/04/20 08:11:34;;;;;;;64.80;49.70;;;19.20;92.10;;;;;;5032430;28;20031;-64
2021/04/20 08:14:23;;;;;;;62.40;50.45;;;19.30;91.40;;;;;;5049232;28;20493;-64
2021/04/20 08:17:01;;;;;;;67.05;50.10;;;19.00;92.10;;;;;;5039838;28;20138;-65
2021/04/20 08:19:42;;;;;;;68.30;50.13;;;19.40;91.00;;;;;;5046534;28;20691;-65
2021/04/20 08:22:12;;;;;;;68.47;51.70;;;19.50;91.10;;;;;;5033010;28;20426;-65
2021/04/20 08:25:12;;;;;;;67.95;49.50;;;19.10;92.40;;;;;;5033203;28;20026;-65
2021/04/20 08:27:53;;;;;;;65.97;50.05;;;19.40;92.10;;;;;;5040364;28;20103;-64
2021/04/20 08:30:43;;;;;;;72.10;51.72;;;19.80;89.10;;;;;;5035732;28;20450;-64
2021/04/20 08:33:17;;;;;;;70.38;53.00;;;20.30;83.60;;;;;;5038186;28;20026;-65
2021/04/20 08:35:47;;;;;;;64.30;49.67;;;20.70;77.50;;;;;;5040830;28;20056;-65
2021/04/20 08:38:39;;;;;;;67.20;50.80;;;20.60;78.80;;;;;;5044872;28;20406;-65
2021/04/20 08:41:08;;;;;;;60.40;49.17;;;21.30;72.90;;;;;;5047450;28;20707;-65
2021/04/20 08:44:02;;;;;;;65.45;49.30;;;22.20;64.70;;;;;;5037613;28;20040;-65
2021/04/20 08:46:47;;;;;;;59.22;48.50;;;22.10;61.70;;;;;;5034772;28;20393;-65
2021/04/20 08:49:30;;;;;;;60.90;47.75;;;22.20;59.60;;;;;;5029631;28;20027;-65
2021/04/20 08:52:41;;;;;;;54.92;46.05;;;22.80;57.30;;;;;;5032328;28;20063;-65
2021/04/20 08:55:31;;;;;;;53.80;43.08;;;23.00;54.90;;;;;;5021777;28;20064;-65
2021/04/20 08:58:28;;;;;;;57.55;43.60;;;22.50;54.90;;;;;;5022377;28;20178;-65
2021/04/20 09:01:15;;;;;;;53.63;41.55;;;22.00;55.80;;;;;;5039780;28;20036;-65
2021/04/20 09:04:28;;;;;;;53.35;44.47;;;21.20;59.20;;;;;;5035095;28;20108;-65
2021/04/20 09:07:03;;;;;;;51.72;42.88;;;21.40;59.30;;;;;;5052344;28;20052;-65
2021/04/20 09:09:31;;;;;;;51.88;41.75;;;21.50;58.10;;;;;;5036230;28;20112;-63
2021/04/20 09:12:01;;;;;;;52.95;42.50;;;21.80;56.10;;;;;;5038542;28;20108;-65
2021/04/20 09:14:39;;;;;;;53.13;43.80;;;21.60;57.70;;;;;;5038244;28;20033;-64
2021/04/20 09:17:17;;;;;;;47.42;39.00;;;20.60;59.20;;;;;;5037287;28;20033;-64
2021/04/20 09:19:56;;;;;;;50.38;40.55;;;20.60;59.90;;;;;;5037567;28;20037;-64
2021/04/20 09:22:44;;;;;;;48.90;40.13;;;20.50;61.70;;;;;;5045718;28;20044;-64
2021/04/20 09:25:16;;;;;;;51.22;39.67;;;20.20;62.20;;;;;;5034222;28;20656;-64
2021/04/20 09:27:51;;;;;;;53.90;41.72;;;19.80;67.70;;;;;;5039321;28;20029;-64
2021/04/20 09:30:20;;;;;;;47.35;37.67;;;21.00;62.20;;;;;;5039059;28;20056;-65
2021/04/20 09:32:59;;;;;;;45.70;36.83;;;20.40;65.40;;;;;;5030980;28;20030;-64
2021/04/20 09:35:26;;;;;;;47.08;37.92;;;20.20;63.20;;;;;;5041568;28;20064;-64
2021/04/20 09:37:53;;;;;;;46.40;37.78;;;20.00;66.40;;;;;;5037765;28;20037;-64
2021/04/20 09:40:22;;;;;;;47.35;37.72;;;20.10;66.80;;;;;;5037590;28;20120;-65
2021/04/20 09:42:52;;;;;;;46.97;36.47;;;20.60;63.90;;;;;;5039882;28;20108;-64
2021/04/20 09:45:27;;;;;;;43.88;35.85;;;21.50;59.10;;;;;;5038894;28;20048;-64
2021/04/20 09:48:19;;;;;;;48.92;34.85;;;22.10;55.50;;;;;;5030768;28;20091;-65
2021/04/20 09:51:03;;;;;;;46.75;36.00;;;22.50;54.40;;;;;;5029055;28;20018;-65
2021/04/20 09:54:17;;;;;;;41.30;35.17;;;22.70;52.50;;;;;;5033958;28;20569;-65
2021/04/20 09:56:52;;;;;;;40.08;34.03;;;23.00;52.10;;;;;;5028724;28;20827;-65
2021/04/20 09:59:36;;;;;;;38.35;32.75;;;22.90;50.10;;;;;;5034764;28;20037;-65
2021/04/20 10:02:30;;;;;;;41.50;34.53;;;23.20;51.10;;;;;;5029693;28;20501;-65
2021/04/20 10:05:40;;;;;;;45.53;36.92;;;22.80;50.80;;;;;;5033851;28;20547;-65
2021/04/20 10:08:29;;;;;;;41.15;35.78;;;23.10;49.80;;;;;;5033317;28;20036;-65
2021/04/20 10:11:04;;;;;;;42.47;35.20;;;22.00;52.00;;;;;;5051197;28;20504;-66
2021/04/20 10:13:57;;;;;;;48.42;36.33;;;22.30;51.70;;;;;;5040337;28;20531;-65
2021/04/20 10:16:35;;;;;;;47.85;38.30;;;21.70;53.30;;;;;;5038626;28;20078;-65
2021/04/20 10:19:25;;;;;;;42.65;36.25;;;21.40;54.80;;;;;;5035496;28;20029;-65
2021/04/20 10:22:17;;;;;;;43.53;35.65;;;21.50;54.10;;;;;;5039179;28;20545;-65
2021/04/20 10:24:51;;;;;;;45.90;34.25;;;22.50;53.60;;;;;;5037374;28;20025;-64
2021/04/20 10:27:21;;;;;;;44.38;32.63;;;22.90;50.30;;;;;;5043109;28;20017;-64
2021/04/20 10:30:00;;;;;;;45.28;32.97;;;23.10;49.80;;;;;;5037475;28;20021;-64
2021/04/20 10:32:31;;;;;;;38.33;33.40;;;24.00;48.80;;;;;;5045262;28;20121;-64
2021/04/20 10:34:59;;;;;;;38.55;33.00;;;23.60;49.20;;;;;;5032880;28;20651;-64
2021/04/20 10:37:39;;;;;;;34.08;29.95;;;23.40;47.40;;;;;;5036547;28;20438;-64
2021/04/20 10:40:14;;;;;;;33.83;28.75;;;22.30;47.70;;;;;;5041250;28;20040;-64
2021/04/20 10:42:44;;;;;;;35.70;30.08;;;22.40;48.10;;;;;;5036300;28;20028;-64
2021/04/20 10:45:10;;;;;;;37.78;30.10;;;22.60;47.60;;;;;;5028719;28;20029;-64
2021/04/20 10:47:40;;;;;;;38.17;31.25;;;23.20;47.40;;;;;;5034915;28;20029;-64
2021/04/20 10:50:07;;;;;;;33.60;28.77;;;23.70;46.80;;;;;;5027498;28;20448;-64
2021/04/20 10:52:36;;;;;;;36.22;25.55;;;24.00;44.00;;;;;;5036701;28;20029;-64
2021/04/20 10:55:09;;;;;;;30.40;24.92;;;23.80;43.20;;;;;;5039623;28;20057;-64
2021/04/20 10:57:39;;;;;;;29.70;23.42;;;23.50;42.80;;;;;;5044259;28;20520;-64
2021/04/20 11:00:07;;;;;;;32.67;25.73;;;22.40;44.00;;;;;;5036328;28;20031;-64
2021/04/20 11:02:37;;;;;;;30.10;23.15;;;22.50;45.40;;;;;;5037531;28;20033;-64
2021/04/20 11:05:04;;;;;;;30.60;22.90;;;22.80;44.40;;;;;;5023463;28;20024;-64
2021/04/20 11:07:40;;;;;;;31.65;23.60;;;23.60;42.30;;;;;;5021508;28;20520;-64
2021/04/20 11:10:08;;;;;;;23.55;17.73;;;24.40;41.30;;;;;;5012439;28;20026;-64
2021/04/20 11:12:44;;;;;;;19.58;17.08;;;24.00;40.10;;;;;;5017865;28;20033;-64
2021/04/20 11:15:21;;;;;;;26.33;21.75;;;25.10;36.60;;;;;;5010051;28;20200;-64
2021/04/20 11:17:56;;;;;;;24.35;21.45;;;25.50;37.70;;;;;;5009094;28;20044;-64
2021/04/20 11:20:42;;;;;;;21.73;18.63;;;25.70;35.90;;;;;;5014899;28;20022;-64
2021/04/20 11:23:08;;;;;;;21.92;17.58;;;25.00;36.20;;;;;;5012829;28;20079;-63
2021/04/20 11:25:55;;;;;;;20.92;18.02;;;23.90;38.10;;;;;;5006755;28;20038;-63
2021/04/20 11:28:42;;;;;;;26.05;22.65;;;24.00;38.10;;;;;;5015825;28;20022;-64
2021/04/20 11:31:36;;;;;;;24.33;20.42;;;24.00;39.50;;;;;;5017708;28;20026;-64
2021/04/20 11:34:15;;;;;;;27.10;20.48;;;25.20;37.70;;;;;;5028437;28;20041;-63
2021/04/20 11:36:44;;;;;;;20.70;17.08;;;25.30;36.80;;;;;;5019505;28;20029;-63
2021/04/20 11:39:16;;;;;;;25.52;20.85;;;25.60;36.80;;;;;;5018687;28;20040;-64
2021/04/20 11:41:48;;;;;;;26.30;21.40;;;24.60;36.90;;;;;;5018109;28;20517;-65
2021/04/20 11:44:15;;;;;;;24.95;21.88;;;24.50;37.90;;;;;;5018627;28;20025;-63
2021/04/20 11:46:47;;;;;;;24.40;19.92;;;24.60;38.30;;;;;;5019572;28;20026;-64
2021/04/20 11:49:22;;;;;;;28.75;24.08;;;25.40;38.30;;;;;;5019514;28;20109;-64
2021/04/20 11:51:49;;;;;;;25.98;22.70;;;27.00;35.90;;;;;;5018329;28;21297;-64
2021/04/20 11:54:29;;;;;;;30.75;22.67;;;26.10;35.30;;;;;;5026170;28;20033;-64
2021/04/20 11:57:01;;;;;;;27.02;20.88;;;26.50;36.10;;;;;;5017933;28;20068;-64
2021/04/20 11:59:28;;;;;;;31.17;22.50;;;25.70;37.30;;;;;;5016006;28;20045;-64
2021/04/20 12:01:55;;;;;;;28.05;23.20;;;25.90;38.10;;;;;;5011797;28;20499;-64
2021/04/20 12:04:34;;;;;;;31.13;26.70;;;27.20;36.60;;;;;;5027936;28;20108;-63
2021/04/20 12:07:00;;;;;;;37.88;25.63;;;25.70;38.70;;;;;;5025094;28;20036;-65
2021/04/20 12:09:29;;;;;;;38.20;26.77;;;26.10;38.80;;;;;;5020483;28;20388;-64
2021/04/20 12:11:56;;;;;;;37.15;27.15;;;26.50;38.30;;;;;;5021055;28;20457;-64
2021/04/20 12:14:25;;;;;;;32.10;25.73;;;27.40;37.00;;;;;;5021599;28;20044;-64
2021/04/20 12:16:56;;;;;;;37.58;27.13;;;28.80;34.50;;;;;;5021380;28;20033;-64
2021/04/20 12:19:26;;;;;;;34.72;26.23;;;27.00;35.30;;;;;;5018710;28;20473;-64
2021/04/20 12:21:55;;;;;;;30.05;25.15;;;26.10;36.60;;;;;;5017536;28;20378;-64
2021/04/20 12:24:26;;;;;;;25.95;23.13;;;25.50;37.80;;;;;;5011460;28;20034;-64
2021/04/20 12:26:54;;;;;;;30.02;26.27;;;25.10;38.10;;;;;;5021669;28;20386;-64
2021/04/20 12:29:25;;;;;;;38.08;26.60;;;24.80;39.30;;;;;;5012298;28;20026;-64
2021/04/20 12:31:52;;;;;;;30.60;26.65;;;25.50;39.20;;;;;;5021473;28;20052;-64
2021/04/20 12:34:29;;;;;;;31.60;27.05;;;25.80;38.10;;;;;;5020366;28;20042;-65
2021/04/20 12:37:00;;;;;;;30.60;25.80;;;25.30;38.60;;;;;;5022157;28;20029;-64
2021/04/20 12:39:36;;;;;;;32.97;25.10;;;26.10;37.60;;;;;;5020705;28;20113;-64
2021/04/20 12:42:05;;;;;;;31.98;25.23;;;26.70;37.50;;;;;;5020412;28;20041;-64
2021/04/20 12:44:38;;;;;;;28.55;24.40;;;25.80;37.20;;;;;;5024369;28;20032;-64
2021/04/20 12:47:07;;;;;;;29.70;25.85;;;25.40;38.50;;;;;;5019895;28;20117;-64
2021/04/20 12:49:36;;;;;;;32.83;26.13;;;26.20;37.20;;;;;;5018646;28;20033;-64
2021/04/20 12:52:11;;;;;;;37.95;26.42;;;25.70;37.00;;;;;;5019970;28;20026;-65
2021/04/20 12:54:39;;;;;;;36.00;25.70;;;24.70;39.50;;;;;;5015804;28;20477;-65